Wilson Clyde — 8PRV — position and weather

sailwx.info

Track history (hours):
 
Tides and Currents Weather Stations Pressure Air Temp Water Temp Dewpoint Dewpoint Depression Visibility Wind Speed Wind Dir Waves Ship Positions

Wilson Clyde

Last reported at 2016-Jul-27 03:12 UTC. Time now 2016-Jul-28 14:32 UTC.
Position N 63°30' E 009°04'.

Length 100 m; draft 5 m.

Type: Cargo ship. MMSI: 314187000.

Date/timePositionNaut miles runAvg speedWind from/ knotsBaromVisibWave heightAir tempDewpointWater temp
2016-Jul-27 03:12N 63°30' E 009°04'1111.7
2016-Jul-27 02:15N 63°35' E 009°26'912.5
2016-Jul-27 01:33N 63°39' E 009°44'1212.0
2016-Jul-27 00:34N 63°29' E 009°57'1211.8
2016-Jul-26 23:34N 63°27' E 010°22'1010.4
2016-Jul-26 22:33N 63°36' E 010°35'1312.7
2016-Jul-26 21:33N 63°44' E 010°56'8 0.3
2016-Jul-25 16:20N 63°50' E 011°05'912.0
2016-Jul-25 15:34N 63°43' E 010°53'1212.4
2016-Jul-25 14:33N 63°35' E 010°32'9 9.1
2016-Jul-25 13:33N 63°27' E 010°20'9 9.0
2016-Jul-25 12:33N 63°28' E 009°60'1111.1
2016-Jul-25 11:33N 63°38' E 009°46'1510.9
2016-Jul-25 10:11N 63°32' E 009°15'45111.4
2016-Jul-23 18:32N 59°19' W 003°45'1111.7
2016-Jul-23 17:33N 59°10' W 003°59'1111.2
2016-Jul-23 16:33N 59°02' W 004°15'1110.7
2016-Jul-23 15:33N 58°55' W 004°31'12410.3
2016-Jul-23 03:32N 57°04' W 006°14'38 9.2
2016-Jul-22 23:22N 56°30' W 005°42'911.4
2016-Jul-22 22:34N 56°35' W 005°28'1212.0
2016-Jul-22 21:34N 56°44' W 005°14'3 0.2
2016-Jul-22 07:33N 56°46' W 005°11'5 1.8
2016-Jul-22 04:33N 56°42' W 005°18'0 0.0
2016-Jul-22 03:33N 56°42' W 005°18'0 0.0
2016-Jul-22 02:33N 56°42' W 005°18'0 0.0
2016-Jul-22 01:34N 56°42' W 005°18'0 0.0
2016-Jul-22 00:34N 56°42' W 005°18'0 0.0
2016-Jul-21 23:33N 56°42' W 005°18'0 0.1
2016-Jul-21 22:33N 56°42' W 005°18'0 0.0
2016-Jul-21 21:34N 56°42' W 005°18'0 0.1
2016-Jul-21 20:33N 56°42' W 005°18'2 2.5
2016-Jul-21 19:34N 56°40' W 005°20'1312.6
2016-Jul-21 18:33N 56°30' W 005°35'5012.6
2016-Jul-21 14:33N 55°42' W 005°59'1313.4
2016-Jul-21 13:33N 55°29' W 005°55'1514.9
2016-Jul-21 12:33N 55°14' W 005°48'2412.3
2016-Jul-21 10:33N 54°53' W 005°27'1110.9
2016-Jul-21 09:33N 54°43' W 005°19'1110.6
2016-Jul-21 08:33N 54°33' W 005°14'1111.1
2016-Jul-21 07:33N 54°22' W 005°13'1212.5
2016-Jul-21 06:33N 54°10' W 005°16'13811.4
2016-Jul-20 18:27N 52°01' W 006°43'1112.6
2016-Jul-20 17:34N 52°07' W 006°58'8 8.4
2016-Jul-20 16:33N 52°16' W 006°60'1 1.3
2016-Jul-20 15:32N 52°16' W 007°02'0 0.0
2016-Jul-20 14:32N 52°16' W 007°02'0 0.0
2016-Jul-20 13:23N 52°16' W 007°02'0 0.0
2016-Jul-20 12:32N 52°16' W 007°02'0 0.0
2016-Jul-20 11:32N 52°16' W 007°02'0 0.0
2016-Jul-20 10:29N 52°16' W 007°02'0 0.0
2016-Jul-20 09:32N 52°16' W 007°02'0 0.0
2016-Jul-20 08:32N 52°16' W 007°02'0 0.0
2016-Jul-20 07:29N 52°16' W 007°02'0 0.0
2016-Jul-20 06:32N 52°16' W 007°02'0 0.0
2016-Jul-20 05:29N 52°16' W 007°02'0 0.0
2016-Jul-20 04:32N 52°16' W 007°02'0 0.0
2016-Jul-20 03:32N 52°16' W 007°02'0 0.0
2016-Jul-20 02:32N 52°16' W 007°02'0 0.0
2016-Jul-20 01:29N 52°16' W 007°02'0 0.0
2016-Jul-20 00:29N 52°16' W 007°02'0 0.0
2016-Jul-19 23:32N 52°16' W 007°02'0 0.0
2016-Jul-19 22:32N 52°16' W 007°02'0 0.0
2016-Jul-19 21:32N 52°16' W 007°02'0 0.0
2016-Jul-19 20:32N 52°16' W 007°02'0 0.0
2016-Jul-19 19:26N 52°16' W 007°02'0 0.0
2016-Jul-19 18:23N 52°16' W 007°02'0 0.0
2016-Jul-19 17:26N 52°16' W 007°02'0 0.0
2016-Jul-19 16:29N 52°16' W 007°02'0 0.0
2016-Jul-19 15:29N 52°16' W 007°02'0 0.0
2016-Jul-19 14:32N 52°16' W 007°02'0 0.0
2016-Jul-19 13:29N 52°16' W 007°02'0 0.0
2016-Jul-19 12:32N 52°16' W 007°02'0 0.0
2016-Jul-19 11:32N 52°16' W 007°02'0 0.0
2016-Jul-19 10:32N 52°16' W 007°02'0 0.0
2016-Jul-19 09:32N 52°16' W 007°02'0 0.0
2016-Jul-19 08:32N 52°16' W 007°02'0 0.0
2016-Jul-19 07:32N 52°16' W 007°02'0 0.0
2016-Jul-19 04:29N 52°16' W 007°02'0 0.0
2016-Jul-19 03:26N 52°16' W 007°02'0 0.0
2016-Jul-19 02:32N 52°16' W 007°02'0 0.0
2016-Jul-19 01:32N 52°16' W 007°02'0 0.0
2016-Jul-19 00:32N 52°16' W 007°02'0 0.0
2016-Jul-18 23:32N 52°16' W 007°02'0 0.0
2016-Jul-18 22:32N 52°16' W 007°02'0 0.0
2016-Jul-18 21:32N 52°16' W 007°02'0 0.0
2016-Jul-18 20:29N 52°16' W 007°02'0 0.0
2016-Jul-18 19:29N 52°16' W 007°02'0 0.1
2016-Jul-18 18:34N 52°16' W 007°02'6 5.9
2016-Jul-18 17:33N 52°11' W 006°56'3 2.8
2016-Jul-18 16:33N 52°09' W 006°58'0 0.0
2016-Jul-18 15:33N 52°09' W 006°58'0 0.0
2016-Jul-18 14:33N 52°09' W 006°58'0 0.0
2016-Jul-18 13:33N 52°09' W 006°58'0 0.0
2016-Jul-18 12:33N 52°09' W 006°58'0 0.1
2016-Jul-18 11:33N 52°09' W 006°58'0 0.0
2016-Jul-18 07:33N 52°08' W 006°58'0 0.1
2016-Jul-18 06:21N 52°09' W 006°58'0 0.0
2016-Jul-18 05:33N 52°09' W 006°58'0 0.0
2016-Jul-18 04:33N 52°09' W 006°58'0 0.0
2016-Jul-18 03:30N 52°09' W 006°58'2 1.7
2016-Jul-18 02:33N 52°07' W 006°59'134 9.6
2016-Jul-17 12:31N 54°08' W 005°23'1010.8
2016-Jul-17 11:34N 54°19' W 005°21'1110.5
2016-Jul-17 10:33N 54°29' W 005°18'1110.7
2016-Jul-17 09:33N 54°39' W 005°25'1212.0
2016-Jul-17 08:34N 54°50' W 005°33'2812.9
2016-Jul-17 06:22N 55°14' W 005°59'2111.7
2016-Jul-17 04:33N 55°29' W 006°25'1010.3
2016-Jul-17 03:33N 55°38' W 006°36'  
Track history (hours):
 
Tides and Currents Weather Stations Pressure Air Temp Water Temp Dewpoint Dewpoint Depression Visibility Wind Speed Wind Dir Waves Ship Positions

Wilson Clyde

Last reported at 2016-Jul-27 03:12 UTC. Time now 2016-Jul-28 14:32 UTC.
Position N 63°30' E 009°04'.

Length 100 m; draft 5 m.

Type: Cargo ship. MMSI: 314187000.

Date/timePositionNaut miles runAvg speedWind from/ knotsBaromVisibWave heightAir tempDewpointWater temp
2016-Jul-27 03:12N 63°30' E 009°04'1111.7
2016-Jul-27 02:15N 63°35' E 009°26'912.5
2016-Jul-27 01:33N 63°39' E 009°44'1212.0
2016-Jul-27 00:34N 63°29' E 009°57'1211.8
2016-Jul-26 23:34N 63°27' E 010°22'1010.4
2016-Jul-26 22:33N 63°36' E 010°35'1312.7
2016-Jul-26 21:33N 63°44' E 010°56'8 0.3
2016-Jul-25 16:20N 63°50' E 011°05'912.0
2016-Jul-25 15:34N 63°43' E 010°53'1212.4
2016-Jul-25 14:33N 63°35' E 010°32'9 9.1
2016-Jul-25 13:33N 63°27' E 010°20'9 9.0
2016-Jul-25 12:33N 63°28' E 009°60'1111.1
2016-Jul-25 11:33N 63°38' E 009°46'1510.9
2016-Jul-25 10:11N 63°32' E 009°15'45111.4
2016-Jul-23 18:32N 59°19' W 003°45'1111.7
2016-Jul-23 17:33N 59°10' W 003°59'1111.2
2016-Jul-23 16:33N 59°02' W 004°15'1110.7
2016-Jul-23 15:33N 58°55' W 004°31'12410.3
2016-Jul-23 03:32N 57°04' W 006°14'38 9.2
2016-Jul-22 23:22N 56°30' W 005°42'911.4
2016-Jul-22 22:34N 56°35' W 005°28'1212.0
2016-Jul-22 21:34N 56°44' W 005°14'3 0.2
2016-Jul-22 07:33N 56°46' W 005°11'5 1.8
2016-Jul-22 04:33N 56°42' W 005°18'0 0.0
2016-Jul-22 03:33N 56°42' W 005°18'0 0.0
2016-Jul-22 02:33N 56°42' W 005°18'0 0.0
2016-Jul-22 01:34N 56°42' W 005°18'0 0.0
2016-Jul-22 00:34N 56°42' W 005°18'0 0.0
2016-Jul-21 23:33N 56°42' W 005°18'0 0.1
2016-Jul-21 22:33N 56°42' W 005°18'0 0.0
2016-Jul-21 21:34N 56°42' W 005°18'0 0.1
2016-Jul-21 20:33N 56°42' W 005°18'2 2.5
2016-Jul-21 19:34N 56°40' W 005°20'1312.6
2016-Jul-21 18:33N 56°30' W 005°35'5012.6
2016-Jul-21 14:33N 55°42' W 005°59'1313.4
2016-Jul-21 13:33N 55°29' W 005°55'1514.9
2016-Jul-21 12:33N 55°14' W 005°48'2412.3
2016-Jul-21 10:33N 54°53' W 005°27'1110.9
2016-Jul-21 09:33N 54°43' W 005°19'1110.6
2016-Jul-21 08:33N 54°33' W 005°14'1111.1
2016-Jul-21 07:33N 54°22' W 005°13'1212.5
2016-Jul-21 06:33N 54°10' W 005°16'13811.4
2016-Jul-20 18:27N 52°01' W 006°43'1112.6
2016-Jul-20 17:34N 52°07' W 006°58'8 8.4
2016-Jul-20 16:33N 52°16' W 006°60'1 1.3
2016-Jul-20 15:32N 52°16' W 007°02'0 0.0
2016-Jul-20 14:32N 52°16' W 007°02'0 0.0
2016-Jul-20 13:23N 52°16' W 007°02'0 0.0
2016-Jul-20 12:32N 52°16' W 007°02'0 0.0
2016-Jul-20 11:32N 52°16' W 007°02'0 0.0
2016-Jul-20 10:29N 52°16' W 007°02'0 0.0
2016-Jul-20 09:32N 52°16' W 007°02'0 0.0
2016-Jul-20 08:32N 52°16' W 007°02'0 0.0
2016-Jul-20 07:29N 52°16' W 007°02'0 0.0
2016-Jul-20 06:32N 52°16' W 007°02'0 0.0
2016-Jul-20 05:29N 52°16' W 007°02'0 0.0
2016-Jul-20 04:32N 52°16' W 007°02'0 0.0
2016-Jul-20 03:32N 52°16' W 007°02'0 0.0
2016-Jul-20 02:32N 52°16' W 007°02'0 0.0
2016-Jul-20 01:29N 52°16' W 007°02'0 0.0
2016-Jul-20 00:29N 52°16' W 007°02'0 0.0
2016-Jul-19 23:32N 52°16' W 007°02'0 0.0
2016-Jul-19 22:32N 52°16' W 007°02'0 0.0
2016-Jul-19 21:32N 52°16' W 007°02'0 0.0
2016-Jul-19 20:32N 52°16' W 007°02'0 0.0
2016-Jul-19 19:26N 52°16' W 007°02'0 0.0
2016-Jul-19 18:23N 52°16' W 007°02'0 0.0
2016-Jul-19 17:26N 52°16' W 007°02'0 0.0
2016-Jul-19 16:29N 52°16' W 007°02'0 0.0
2016-Jul-19 15:29N 52°16' W 007°02'0 0.0
2016-Jul-19 14:32N 52°16' W 007°02'0 0.0
2016-Jul-19 13:29N 52°16' W 007°02'0 0.0
2016-Jul-19 12:32N 52°16' W 007°02'0 0.0
2016-Jul-19 11:32N 52°16' W 007°02'0 0.0
2016-Jul-19 10:32N 52°16' W 007°02'0 0.0
2016-Jul-19 09:32N 52°16' W 007°02'0 0.0
2016-Jul-19 08:32N 52°16' W 007°02'0 0.0
2016-Jul-19 07:32N 52°16' W 007°02'0 0.0
2016-Jul-19 04:29N 52°16' W 007°02'0 0.0
2016-Jul-19 03:26N 52°16' W 007°02'0 0.0
2016-Jul-19 02:32N 52°16' W 007°02'0 0.0
2016-Jul-19 01:32N 52°16' W 007°02'0 0.0
2016-Jul-19 00:32N 52°16' W 007°02'0 0.0
2016-Jul-18 23:32N 52°16' W 007°02'0 0.0
2016-Jul-18 22:32N 52°16' W 007°02'0 0.0
2016-Jul-18 21:32N 52°16' W 007°02'0 0.0
2016-Jul-18 20:29N 52°16' W 007°02'0 0.0
2016-Jul-18 19:29N 52°16' W 007°02'0 0.1
2016-Jul-18 18:34N 52°16' W 007°02'6 5.9
2016-Jul-18 17:33N 52°11' W 006°56'3 2.8
2016-Jul-18 16:33N 52°09' W 006°58'0 0.0
2016-Jul-18 15:33N 52°09' W 006°58'0 0.0
2016-Jul-18 14:33N 52°09' W 006°58'0 0.0
2016-Jul-18 13:33N 52°09' W 006°58'0 0.0
2016-Jul-18 12:33N 52°09' W 006°58'0 0.1
2016-Jul-18 11:33N 52°09' W 006°58'0 0.0
2016-Jul-18 07:33N 52°08' W 006°58'0 0.1
2016-Jul-18 06:21N 52°09' W 006°58'0 0.0
2016-Jul-18 05:33N 52°09' W 006°58'0 0.0
2016-Jul-18 04:33N 52°09' W 006°58'0 0.0
2016-Jul-18 03:30N 52°09' W 006°58'2 1.7
2016-Jul-18 02:33N 52°07' W 006°59'134 9.6
2016-Jul-17 12:31N 54°08' W 005°23'1010.8
2016-Jul-17 11:34N 54°19' W 005°21'1110.5
2016-Jul-17 10:33N 54°29' W 005°18'1110.7
2016-Jul-17 09:33N 54°39' W 005°25'1212.0
2016-Jul-17 08:34N 54°50' W 005°33'2812.9
2016-Jul-17 06:22N 55°14' W 005°59'2111.7
2016-Jul-17 04:33N 55°29' W 006°25'1010.3
2016-Jul-17 03:33N 55°38' W 006°36'  

Dump ship's entire track history